Terminal Aerodrome Forecast
Issued by NWS Topeka, KS

Home | Current Version | Previous Version | Graphics & Text | Print | Product List | Glossary On
Versions: 1 2 3 4 5 6 7 8 9 10 11 12 13 14 15
000
FTUS43 KTOP 280700 AAA
TAFTOP
TAF AMD
KTOP 280715Z 2807/2906 00000KT 4SM BR SKC
      TEMPO 2808/2811 1SM BR
     FM281100 00000KT 3SM MIFG SKC
     FM281400 16005KT P6SM SCT060=

USA.gov is the U.S. government's official web portal to all federal, state and local government web resources and services.